sensor_id;sensor_type;location;lat;lon;timestamp;temperature;humidity
45619;DHT22;31343;47.520;19.144;2022-10-16T00:01:27;15.40;99.90
45619;DHT22;31343;47.520;19.144;2022-10-16T00:03:53;15.30;99.90
45619;DHT22;31343;47.520;19.144;2022-10-16T00:06:21;15.30;99.90
45619;DHT22;31343;47.520;19.144;2022-10-16T00:08:47;15.30;99.90
45619;DHT22;31343;47.520;19.144;2022-10-16T00:11:25;15.30;99.90
45619;DHT22;31343;47.520;19.144;2022-10-16T00:13:54;15.20;99.90
45619;DHT22;31343;47.520;19.144;2022-10-16T00:16:20;15.20;99.90
45619;DHT22;31343;47.520;19.144;2022-10-16T00:18:46;15.30;99.90
45619;DHT22;31343;47.520;19.144;2022-10-16T00:21:22;15.20;99.90
45619;DHT22;31343;47.520;19.144;2022-10-16T00:23:51;15.10;99.90
45619;DHT22;31343;47.520;19.144;2022-10-16T00:26:17;15.10;99.90
45619;DHT22;31343;47.520;19.144;2022-10-16T00:28:49;15.10;99.90
45619;DHT22;31343;47.520;19.144;2022-10-16T00:31:16;15.10;99.90
45619;DHT22;31343;47.520;19.144;2022-10-16T00:33:43;15.20;99.90
45619;DHT22;31343;47.520;19.144;2022-10-16T00:36:12;15.20;99.90
45619;DHT22;31343;47.520;19.144;2022-10-16T00:38:38;15.20;99.90
45619;DHT22;31343;47.520;19.144;2022-10-16T00:41:05;15.20;99.90
45619;DHT22;31343;47.520;19.144;2022-10-16T00:51:25;15.00;99.90
45619;DHT22;31343;47.520;19.144;2022-10-16T00:53:52;15.00;99.90
45619;DHT22;31343;47.520;19.144;2022-10-16T00:56:18;15.00;99.90
45619;DHT22;31343;47.520;19.144;2022-10-16T00:58:44;15.00;99.90
45619;DHT22;31343;47.520;19.144;2022-10-16T01:01:09;15.00;99.90
45619;DHT22;31343;47.520;19.144;2022-10-16T01:03:36;15.00;99.90
45619;DHT22;31343;47.520;19.144;2022-10-16T01:08:58;15.00;99.90
45619;DHT22;31343;47.520;19.144;2022-10-16T01:11:48;14.90;99.90
45619;DHT22;31343;47.520;19.144;2022-10-16T01:14:31;14.90;99.90
45619;DHT22;31343;47.520;19.144;2022-10-16T01:17:04;14.90;99.90
45619;DHT22;31343;47.520;19.144;2022-10-16T01:22:50;14.80;99.90
45619;DHT22;31343;47.520;19.144;2022-10-16T01:25:49;14.80;99.90
45619;DHT22;31343;47.520;19.144;2022-10-16T01:28:22;14.80;99.90
45619;DHT22;31343;47.520;19.144;2022-10-16T01:30:52;14.80;99.90
45619;DHT22;31343;47.520;19.144;2022-10-16T01:33:26;14.80;99.90
45619;DHT22;31343;47.520;19.144;2022-10-16T01:35:58;14.80;99.90
45619;DHT22;31343;47.520;19.144;2022-10-16T01:38:30;14.80;99.90
45619;DHT22;31343;47.520;19.144;2022-10-16T01:41:22;14.70;99.90
45619;DHT22;31343;47.520;19.144;2022-10-16T01:43:56;14.70;99.90
45619;DHT22;31343;47.520;19.144;2022-10-16T01:46:25;14.60;99.90
45619;DHT22;31343;47.520;19.144;2022-10-16T01:48:52;14.50;99.90
45619;DHT22;31343;47.520;19.144;2022-10-16T01:51:19;14.60;99.90
45619;DHT22;31343;47.520;19.144;2022-10-16T01:53:51;14.50;99.90
45619;DHT22;31343;47.520;19.144;2022-10-16T01:56:18;14.50;99.90
45619;DHT22;31343;47.520;19.144;2022-10-16T01:58:58;14.50;99.90
45619;DHT22;31343;47.520;19.144;2022-10-16T02:01:27;14.50;99.90
45619;DHT22;31343;47.520;19.144;2022-10-16T02:03:57;14.40;99.90
45619;DHT22;31343;47.520;19.144;2022-10-16T02:06:25;14.30;99.90
45619;DHT22;31343;47.520;19.144;2022-10-16T02:08:51;14.30;99.90
45619;DHT22;31343;47.520;19.144;2022-10-16T02:11:17;14.20;99.90
45619;DHT22;31343;47.520;19.144;2022-10-16T02:13:50;14.20;99.90
45619;DHT22;31343;47.520;19.144;2022-10-16T02:16:16;14.10;99.90
45619;DHT22;31343;47.520;19.144;2022-10-16T02:18:43;14.10;99.90
45619;DHT22;31343;47.520;19.144;2022-10-16T02:21:32;14.00;99.90
45619;DHT22;31343;47.520;19.144;2022-10-16T02:26:43;14.00;99.90
45619;DHT22;31343;47.520;19.144;2022-10-16T02:29:13;13.90;99.90
45619;DHT22;31343;47.520;19.144;2022-10-16T02:31:46;13.80;99.90
45619;DHT22;31343;47.520;19.144;2022-10-16T02:34:14;13.70;99.90
45619;DHT22;31343;47.520;19.144;2022-10-16T02:36:42;13.50;99.90
45619;DHT22;31343;47.520;19.144;2022-10-16T02:39:08;13.40;99.90
45619;DHT22;31343;47.520;19.144;2022-10-16T02:41:35;13.40;99.90
45619;DHT22;31343;47.520;19.144;2022-10-16T02:44:01;13.30;99.90
45619;DHT22;31343;47.520;19.144;2022-10-16T02:46:27;13.20;99.90
45619;DHT22;31343;47.520;19.144;2022-10-16T02:48:52;13.20;99.90
45619;DHT22;31343;47.520;19.144;2022-10-16T02:51:18;13.10;99.90
45619;DHT22;31343;47.520;19.144;2022-10-16T02:53:44;13.20;99.90
45619;DHT22;31343;47.520;19.144;2022-10-16T02:56:10;13.20;99.90
45619;DHT22;31343;47.520;19.144;2022-10-16T02:58:35;13.20;99.90
45619;DHT22;31343;47.520;19.144;2022-10-16T03:01:01;13.10;99.90
45619;DHT22;31343;47.520;19.144;2022-10-16T03:03:27;13.10;99.90
45619;DHT22;31343;47.520;19.144;2022-10-16T03:05:52;13.00;99.90
45619;DHT22;31343;47.520;19.144;2022-10-16T03:08:19;12.90;99.90
45619;DHT22;31343;47.520;19.144;2022-10-16T03:10:49;12.90;99.90
45619;DHT22;31343;47.520;19.144;2022-10-16T03:13:15;12.90;99.90
45619;DHT22;31343;47.520;19.144;2022-10-16T03:15:40;12.90;99.90
45619;DHT22;31343;47.520;19.144;2022-10-16T03:18:07;12.90;99.90
45619;DHT22;31343;47.520;19.144;2022-10-16T03:20:33;12.90;99.90
45619;DHT22;31343;47.520;19.144;2022-10-16T03:22:59;12.80;99.90
45619;DHT22;31343;47.520;19.144;2022-10-16T03:25:25;12.80;99.90
45619;DHT22;31343;47.520;19.144;2022-10-16T03:27:52;12.70;99.90
45619;DHT22;31343;47.520;19.144;2022-10-16T03:30:17;12.60;99.90
45619;DHT22;31343;47.520;19.144;2022-10-16T03:32:44;12.60;99.90
45619;DHT22;31343;47.520;19.144;2022-10-16T03:35:10;12.60;99.90
45619;DHT22;31343;47.520;19.144;2022-10-16T03:37:36;12.50;99.90
45619;DHT22;31343;47.520;19.144;2022-10-16T03:40:02;12.50;99.90
45619;DHT22;31343;47.520;19.144;2022-10-16T03:42:28;12.40;99.90
45619;DHT22;31343;47.520;19.144;2022-10-16T03:44:53;12.40;99.90
45619;DHT22;31343;47.520;19.144;2022-10-16T03:47:19;12.30;99.90
45619;DHT22;31343;47.520;19.144;2022-10-16T03:49:49;12.30;99.90
45619;DHT22;31343;47.520;19.144;2022-10-16T03:52:16;12.30;99.90
45619;DHT22;31343;47.520;19.144;2022-10-16T03:54:42;12.20;99.90
45619;DHT22;31343;47.520;19.144;2022-10-16T03:57:07;12.30;99.90
45619;DHT22;31343;47.520;19.144;2022-10-16T03:59:33;12.30;99.90
45619;DHT22;31343;47.520;19.144;2022-10-16T04:01:59;12.00;99.90
45619;DHT22;31343;47.520;19.144;2022-10-16T04:04:24;11.90;99.90
45619;DHT22;31343;47.520;19.144;2022-10-16T04:06:50;11.80;99.90
45619;DHT22;31343;47.520;19.144;2022-10-16T04:09:16;11.80;99.90
45619;DHT22;31343;47.520;19.144;2022-10-16T04:11:43;11.80;99.90
45619;DHT22;31343;47.520;19.144;2022-10-16T04:14:08;11.90;99.90
45619;DHT22;31343;47.520;19.144;2022-10-16T04:16:34;11.90;99.90
45619;DHT22;31343;47.520;19.144;2022-10-16T04:19:00;11.80;99.90
45619;DHT22;31343;47.520;19.144;2022-10-16T04:21:26;11.90;99.90
45619;DHT22;31343;47.520;19.144;2022-10-16T04:23:51;11.80;99.90
45619;DHT22;31343;47.520;19.144;2022-10-16T04:26:17;11.80;99.90
45619;DHT22;31343;47.520;19.144;2022-10-16T04:28:43;11.80;99.90
45619;DHT22;31343;47.520;19.144;2022-10-16T04:31:09;11.70;99.90
45619;DHT22;31343;47.520;19.144;2022-10-16T04:33:34;11.70;99.90
45619;DHT22;31343;47.520;19.144;2022-10-16T04:36:01;11.60;99.90
45619;DHT22;31343;47.520;19.144;2022-10-16T04:38:27;11.60;99.90
45619;DHT22;31343;47.520;19.144;2022-10-16T04:40:53;11.60;99.90
45619;DHT22;31343;47.520;19.144;2022-10-16T04:43:19;11.60;99.90
45619;DHT22;31343;47.520;19.144;2022-10-16T04:45:45;11.70;99.90
45619;DHT22;31343;47.520;19.144;2022-10-16T04:48:11;11.60;99.90
45619;DHT22;31343;47.520;19.144;2022-10-16T04:50:37;11.70;99.90
45619;DHT22;31343;47.520;19.144;2022-10-16T04:53:03;11.60;99.90
45619;DHT22;31343;47.520;19.144;2022-10-16T04:55:28;11.60;99.90
45619;DHT22;31343;47.520;19.144;2022-10-16T04:57:54;11.50;99.90
45619;DHT22;31343;47.520;19.144;2022-10-16T05:00:20;11.50;99.90
45619;DHT22;31343;47.520;19.144;2022-10-16T05:02:49;11.40;99.90
45619;DHT22;31343;47.520;19.144;2022-10-16T05:05:14;11.50;99.90
45619;DHT22;31343;47.520;19.144;2022-10-16T05:07:40;11.50;99.90
45619;DHT22;31343;47.520;19.144;2022-10-16T05:10:06;11.50;99.90
45619;DHT22;31343;47.520;19.144;2022-10-16T05:12:32;11.30;99.90
45619;DHT22;31343;47.520;19.144;2022-10-16T05:14:58;11.10;99.90
45619;DHT22;31343;47.520;19.144;2022-10-16T05:17:24;11.10;99.90
45619;DHT22;31343;47.520;19.144;2022-10-16T05:19:51;11.20;99.90
45619;DHT22;31343;47.520;19.144;2022-10-16T05:22:17;11.20;99.90
45619;DHT22;31343;47.520;19.144;2022-10-16T05:24:43;11.20;99.90
45619;DHT22;31343;47.520;19.144;2022-10-16T05:27:09;11.30;99.90
45619;DHT22;31343;47.520;19.144;2022-10-16T05:29:36;11.40;99.90
45619;DHT22;31343;47.520;19.144;2022-10-16T05:32:01;11.30;99.90
45619;DHT22;31343;47.520;19.144;2022-10-16T05:34:27;11.30;99.90
45619;DHT22;31343;47.520;19.144;2022-10-16T05:36:53;11.40;99.90
45619;DHT22;31343;47.520;19.144;2022-10-16T05:39:19;11.40;99.90
45619;DHT22;31343;47.520;19.144;2022-10-16T05:41:44;11.40;99.90
45619;DHT22;31343;47.520;19.144;2022-10-16T05:44:11;11.50;99.90
45619;DHT22;31343;47.520;19.144;2022-10-16T05:46:37;11.50;99.90
45619;DHT22;31343;47.520;19.144;2022-10-16T05:49:03;11.50;99.90
45619;DHT22;31343;47.520;19.144;2022-10-16T05:51:28;11.50;99.90
45619;DHT22;31343;47.520;19.144;2022-10-16T05:53:54;11.60;99.90
45619;DHT22;31343;47.520;19.144;2022-10-16T05:56:20;11.60;99.90
45619;DHT22;31343;47.520;19.144;2022-10-16T05:58:46;11.70;99.90
45619;DHT22;31343;47.520;19.144;2022-10-16T06:01:16;11.80;99.90
45619;DHT22;31343;47.520;19.144;2022-10-16T06:03:42;11.90;99.90
45619;DHT22;31343;47.520;19.144;2022-10-16T06:06:13;12.20;99.90
45619;DHT22;31343;47.520;19.144;2022-10-16T06:08:40;13.20;99.90
45619;DHT22;31343;47.520;19.144;2022-10-16T06:11:08;14.50;99.90
45619;DHT22;31343;47.520;19.144;2022-10-16T06:13:34;15.50;99.90
45619;DHT22;31343;47.520;19.144;2022-10-16T06:16:01;16.60;99.90
45619;DHT22;31343;47.520;19.144;2022-10-16T06:18:28;17.30;99.90
45619;DHT22;31343;47.520;19.144;2022-10-16T06:20:54;17.70;99.20
45619;DHT22;31343;47.520;19.144;2022-10-16T06:23:20;17.40;99.40
45619;DHT22;31343;47.520;19.144;2022-10-16T06:25:46;17.20;99.50
45619;DHT22;31343;47.520;19.144;2022-10-16T06:28:13;17.80;98.80
45619;DHT22;31343;47.520;19.144;2022-10-16T06:30:39;18.00;98.70
45619;DHT22;31343;47.520;19.144;2022-10-16T06:33:05;18.20;97.70
45619;DHT22;31343;47.520;19.144;2022-10-16T06:35:31;18.60;97.60
45619;DHT22;31343;47.520;19.144;2022-10-16T06:37:57;18.90;96.80
45619;DHT22;31343;47.520;19.144;2022-10-16T06:40:23;18.50;97.20
45619;DHT22;31343;47.520;19.144;2022-10-16T06:42:49;18.70;96.70
45619;DHT22;31343;47.520;19.144;2022-10-16T06:45:15;18.80;96.70
45619;DHT22;31343;47.520;19.144;2022-10-16T06:47:41;19.60;96.20
45619;DHT22;31343;47.520;19.144;2022-10-16T06:50:07;19.40;95.40
45619;DHT22;31343;47.520;19.144;2022-10-16T06:52:33;18.90;95.90
45619;DHT22;31343;47.520;19.144;2022-10-16T06:54:59;18.70;96.50
45619;DHT22;31343;47.520;19.144;2022-10-16T06:57:25;18.60;96.60
45619;DHT22;31343;47.520;19.144;2022-10-16T06:59:51;19.70;95.50
45619;DHT22;31343;47.520;19.144;2022-10-16T07:02:17;19.50;95.40
45619;DHT22;31343;47.520;19.144;2022-10-16T07:04:42;18.80;96.00
45619;DHT22;31343;47.520;19.144;2022-10-16T07:07:08;18.30;96.70
45619;DHT22;31343;47.520;19.144;2022-10-16T07:09:34;18.20;97.00
45619;DHT22;31343;47.520;19.144;2022-10-16T07:11:59;18.50;97.00
45619;DHT22;31343;47.520;19.144;2022-10-16T07:14:25;18.40;96.80
45619;DHT22;31343;47.520;19.144;2022-10-16T07:16:51;18.90;96.40
45619;DHT22;31343;47.520;19.144;2022-10-16T07:19:17;18.80;96.30
45619;DHT22;31343;47.520;19.144;2022-10-16T07:21:43;19.00;96.10
45619;DHT22;31343;47.520;19.144;2022-10-16T07:24:14;18.60;96.20
45619;DHT22;31343;47.520;19.144;2022-10-16T07:26:41;18.50;96.20
45619;DHT22;31343;47.520;19.144;2022-10-16T07:29:13;18.10;97.10
45619;DHT22;31343;47.520;19.144;2022-10-16T07:31:39;18.30;97.10
45619;DHT22;31343;47.520;19.144;2022-10-16T07:34:05;18.70;96.90
45619;DHT22;31343;47.520;19.144;2022-10-16T07:36:31;19.00;96.30
45619;DHT22;31343;47.520;19.144;2022-10-16T07:38:57;18.50;96.10
45619;DHT22;31343;47.520;19.144;2022-10-16T07:41:22;17.30;97.60
45619;DHT22;31343;47.520;19.144;2022-10-16T07:43:50;17.70;98.40
45619;DHT22;31343;47.520;19.144;2022-10-16T07:46:17;17.70;97.50
45619;DHT22;31343;47.520;19.144;2022-10-16T07:48:43;18.00;97.20
45619;DHT22;31343;47.520;19.144;2022-10-16T07:51:17;17.90;97.70
45619;DHT22;31343;47.520;19.144;2022-10-16T07:53:43;17.50;97.40
45619;DHT22;31343;47.520;19.144;2022-10-16T07:56:09;17.20;98.20
45619;DHT22;31343;47.520;19.144;2022-10-16T07:58:35;17.10;98.20
45619;DHT22;31343;47.520;19.144;2022-10-16T08:01:07;17.20;98.90
45619;DHT22;31343;47.520;19.144;2022-10-16T08:03:34;17.30;99.10
45619;DHT22;31343;47.520;19.144;2022-10-16T08:06:00;16.90;98.40
45619;DHT22;31343;47.520;19.144;2022-10-16T08:08:26;16.80;99.00
45619;DHT22;31343;47.520;19.144;2022-10-16T08:10:52;17.00;99.60
45619;DHT22;31343;47.520;19.144;2022-10-16T08:13:18;16.60;99.50
45619;DHT22;31343;47.520;19.144;2022-10-16T08:15:44;16.60;99.60
45619;DHT22;31343;47.520;19.144;2022-10-16T08:18:13;16.70;99.90
45619;DHT22;31343;47.520;19.144;2022-10-16T08:20:39;16.60;99.90
45619;DHT22;31343;47.520;19.144;2022-10-16T08:23:06;16.70;99.90
45619;DHT22;31343;47.520;19.144;2022-10-16T08:25:35;16.50;99.90
45619;DHT22;31343;47.520;19.144;2022-10-16T08:28:03;16.70;99.90
45619;DHT22;31343;47.520;19.144;2022-10-16T08:30:30;16.70;99.90
45619;DHT22;31343;47.520;19.144;2022-10-16T08:32:55;16.50;99.90
45619;DHT22;31343;47.520;19.144;2022-10-16T08:35:21;16.60;99.70
45619;DHT22;31343;47.520;19.144;2022-10-16T08:37:48;16.70;99.90
45619;DHT22;31343;47.520;19.144;2022-10-16T08:40:24;16.80;99.50
45619;DHT22;31343;47.520;19.144;2022-10-16T08:45:37;17.00;99.60
45619;DHT22;31343;47.520;19.144;2022-10-16T08:50:48;16.60;99.90
45619;DHT22;31343;47.520;19.144;2022-10-16T08:53:27;16.80;99.90
45619;DHT22;31343;47.520;19.144;2022-10-16T08:55:55;16.80;99.90
45619;DHT22;31343;47.520;19.144;2022-10-16T08:58:23;16.90;99.90
45619;DHT22;31343;47.520;19.144;2022-10-16T09:00:57;16.90;99.30
45619;DHT22;31343;47.520;19.144;2022-10-16T09:03:41;17.20;99.30
45619;DHT22;31343;47.520;19.144;2022-10-16T09:20:36;17.50;98.80
45619;DHT22;31343;47.520;19.144;2022-10-16T09:25:31;17.20;99.40
45619;DHT22;31343;47.520;19.144;2022-10-16T09:27:57;17.30;99.50
45619;DHT22;31343;47.520;19.144;2022-10-16T09:30:27;17.20;99.20
45619;DHT22;31343;47.520;19.144;2022-10-16T09:32:55;17.30;99.80
45619;DHT22;31343;47.520;19.144;2022-10-16T09:35:35;17.60;98.80
45619;DHT22;31343;47.520;19.144;2022-10-16T09:38:03;17.60;99.40
45619;DHT22;31343;47.520;19.144;2022-10-16T09:40:37;17.70;99.00
45619;DHT22;31343;47.520;19.144;2022-10-16T09:45:57;17.70;98.60
45619;DHT22;31343;47.520;19.144;2022-10-16T09:48:27;17.60;99.30
45619;DHT22;31343;47.520;19.144;2022-10-16T09:51:01;17.60;99.00
45619;DHT22;31343;47.520;19.144;2022-10-16T09:53:53;17.90;99.00
45619;DHT22;31343;47.520;19.144;2022-10-16T09:56:25;17.90;99.10
45619;DHT22;31343;47.520;19.144;2022-10-16T09:58:53;18.20;98.40
45619;DHT22;31343;47.520;19.144;2022-10-16T10:01:21;18.10;98.10
45619;DHT22;31343;47.520;19.144;2022-10-16T10:03:47;18.10;98.30
45619;DHT22;31343;47.520;19.144;2022-10-16T10:06:19;18.00;98.40
45619;DHT22;31343;47.520;19.144;2022-10-16T10:08:54;18.00;98.60
45619;DHT22;31343;47.520;19.144;2022-10-16T10:11:56;18.00;98.10
45619;DHT22;31343;47.520;19.144;2022-10-16T10:14:28;18.10;98.20
45619;DHT22;31343;47.520;19.144;2022-10-16T10:19:36;18.10;98.10
45619;DHT22;31343;47.520;19.144;2022-10-16T10:22:21;18.10;98.50
45619;DHT22;31343;47.520;19.144;2022-10-16T10:25:00;18.30;98.30
45619;DHT22;31343;47.520;19.144;2022-10-16T10:30:59;18.20;98.30
45619;DHT22;31343;47.520;19.144;2022-10-16T10:33:37;18.30;98.80
45619;DHT22;31343;47.520;19.144;2022-10-16T10:36:16;18.60;98.10
45619;DHT22;31343;47.520;19.144;2022-10-16T10:38:59;18.70;97.80
45619;DHT22;31343;47.520;19.144;2022-10-16T10:47:01;19.10;97.50
45619;DHT22;31343;47.520;19.144;2022-10-16T10:52:57;18.90;97.20
45619;DHT22;31343;47.520;19.144;2022-10-16T11:06:20;19.40;96.30
45619;DHT22;31343;47.520;19.144;2022-10-16T11:09:20;19.60;96.30
45619;DHT22;31343;47.520;19.144;2022-10-16T11:11:52;19.70;95.90
45619;DHT22;31343;47.520;19.144;2022-10-16T11:14:29;20.10;95.70
45619;DHT22;31343;47.520;19.144;2022-10-16T11:17:12;20.30;95.50
45619;DHT22;31343;47.520;19.144;2022-10-16T11:19:48;20.40;95.30
45619;DHT22;31343;47.520;19.144;2022-10-16T11:25:28;20.80;94.30
45619;DHT22;31343;47.520;19.144;2022-10-16T11:28:16;21.00;94.40
45619;DHT22;31343;47.520;19.144;2022-10-16T11:33:55;22.20;93.40
45619;DHT22;31343;47.520;19.144;2022-10-16T11:36:28;22.60;92.90
45619;DHT22;31343;47.520;19.144;2022-10-16T11:39:23;22.60;92.60
45619;DHT22;31343;47.520;19.144;2022-10-16T11:44:44;23.10;92.30
45619;DHT22;31343;47.520;19.144;2022-10-16T11:50:27;23.50;90.20
45619;DHT22;31343;47.520;19.144;2022-10-16T11:55:27;23.60;90.10
45619;DHT22;31343;47.520;19.144;2022-10-16T11:58:41;24.00;89.90
45619;DHT22;31343;47.520;19.144;2022-10-16T12:08:53;24.70;87.60
45619;DHT22;31343;47.520;19.144;2022-10-16T12:19:19;24.40;86.20
45619;DHT22;31343;47.520;19.144;2022-10-16T12:21:45;23.40;86.80
45619;DHT22;31343;47.520;19.144;2022-10-16T12:26:49;24.00;86.60
45619;DHT22;31343;47.520;19.144;2022-10-16T12:29:35;24.50;85.50
45619;DHT22;31343;47.520;19.144;2022-10-16T12:32:05;24.50;85.50
45619;DHT22;31343;47.520;19.144;2022-10-16T12:34:41;24.70;84.90
45619;DHT22;31343;47.520;19.144;2022-10-16T12:37:15;24.70;84.90
45619;DHT22;31343;47.520;19.144;2022-10-16T12:39:44;24.70;83.70
45619;DHT22;31343;47.520;19.144;2022-10-16T12:44:56;24.70;84.10
45619;DHT22;31343;47.520;19.144;2022-10-16T12:49:56;24.60;83.90
45619;DHT22;31343;47.520;19.144;2022-10-16T12:54:58;24.40;84.90
45619;DHT22;31343;47.520;19.144;2022-10-16T13:00:32;25.60;83.10
45619;DHT22;31343;47.520;19.144;2022-10-16T13:06:19;25.60;81.70
45619;DHT22;31343;47.520;19.144;2022-10-16T13:09:13;25.50;82.10
45619;DHT22;31343;47.520;19.144;2022-10-16T13:12:05;25.70;81.40
45619;DHT22;31343;47.520;19.144;2022-10-16T13:28:05;25.90;80.70
45619;DHT22;31343;47.520;19.144;2022-10-16T13:30:37;26.00;79.00
45619;DHT22;31343;47.520;19.144;2022-10-16T13:35:54;24.60;81.60
45619;DHT22;31343;47.520;19.144;2022-10-16T13:38:23;23.70;83.00
45619;DHT22;31343;47.520;19.144;2022-10-16T13:41:02;23.00;85.00
45619;DHT22;31343;47.520;19.144;2022-10-16T13:43:35;22.50;86.10
45619;DHT22;31343;47.520;19.144;2022-10-16T13:46:04;22.30;86.40
45619;DHT22;31343;47.520;19.144;2022-10-16T13:48:31;22.30;85.80
45619;DHT22;31343;47.520;19.144;2022-10-16T13:51:03;22.10;86.70
45619;DHT22;31343;47.520;19.144;2022-10-16T13:53:34;22.10;87.00
45619;DHT22;31343;47.520;19.144;2022-10-16T13:56:01;21.90;87.40
45619;DHT22;31343;47.520;19.144;2022-10-16T13:58:27;21.90;87.80
45619;DHT22;31343;47.520;19.144;2022-10-16T14:01:25;21.90;88.20
45619;DHT22;31343;47.520;19.144;2022-10-16T14:03:50;21.90;88.00
45619;DHT22;31343;47.520;19.144;2022-10-16T14:06:19;21.80;88.50
45619;DHT22;31343;47.520;19.144;2022-10-16T14:08:56;21.60;89.10
45619;DHT22;31343;47.520;19.144;2022-10-16T14:11:25;21.60;89.70
45619;DHT22;31343;47.520;19.144;2022-10-16T14:13:51;21.70;89.00
45619;DHT22;31343;47.520;19.144;2022-10-16T14:16:21;21.60;88.20
45619;DHT22;31343;47.520;19.144;2022-10-16T14:21:21;21.60;88.30
45619;DHT22;31343;47.520;19.144;2022-10-16T14:23:47;21.60;88.80
45619;DHT22;31343;47.520;19.144;2022-10-16T14:26:14;21.40;88.00
45619;DHT22;31343;47.520;19.144;2022-10-16T14:28:41;21.20;88.80
45619;DHT22;31343;47.520;19.144;2022-10-16T14:31:32;21.20;88.70
45619;DHT22;31343;47.520;19.144;2022-10-16T14:33:59;21.20;88.80
45619;DHT22;31343;47.520;19.144;2022-10-16T14:36:27;21.10;88.70
45619;DHT22;31343;47.520;19.144;2022-10-16T14:39:13;21.10;88.90
45619;DHT22;31343;47.520;19.144;2022-10-16T14:41:48;21.00;89.40
45619;DHT22;31343;47.520;19.144;2022-10-16T14:44:17;21.00;88.60
45619;DHT22;31343;47.520;19.144;2022-10-16T14:46:43;21.00;90.00
45619;DHT22;31343;47.520;19.144;2022-10-16T14:51:36;21.10;90.00
45619;DHT22;31343;47.520;19.144;2022-10-16T14:54:02;21.00;89.70
45619;DHT22;31343;47.520;19.144;2022-10-16T15:01:46;20.80;89.80
45619;DHT22;31343;47.520;19.144;2022-10-16T15:04:12;20.80;89.90
45619;DHT22;31343;47.520;19.144;2022-10-16T15:06:39;20.80;90.10
45619;DHT22;31343;47.520;19.144;2022-10-16T15:09:04;20.70;90.10
45619;DHT22;31343;47.520;19.144;2022-10-16T15:11:31;20.60;90.50
45619;DHT22;31343;47.520;19.144;2022-10-16T15:13:58;20.60;90.70
45619;DHT22;31343;47.520;19.144;2022-10-16T15:16:24;20.50;90.90
45619;DHT22;31343;47.520;19.144;2022-10-16T15:18:49;20.50;91.10
45619;DHT22;31343;47.520;19.144;2022-10-16T15:21:29;20.50;91.30
45619;DHT22;31343;47.520;19.144;2022-10-16T15:23:56;20.40;91.40
45619;DHT22;31343;47.520;19.144;2022-10-16T15:26:23;20.30;91.40
45619;DHT22;31343;47.520;19.144;2022-10-16T15:28:49;20.30;91.60
45619;DHT22;31343;47.520;19.144;2022-10-16T15:31:14;20.20;91.90
45619;DHT22;31343;47.520;19.144;2022-10-16T15:33:40;20.20;91.90
45619;DHT22;31343;47.520;19.144;2022-10-16T15:36:06;20.10;92.00
45619;DHT22;31343;47.520;19.144;2022-10-16T15:38:32;20.10;92.40
45619;DHT22;31343;47.520;19.144;2022-10-16T15:40:58;20.00;92.60
45619;DHT22;31343;47.520;19.144;2022-10-16T15:43:24;20.00;92.80
45619;DHT22;31343;47.520;19.144;2022-10-16T15:46:04;19.90;92.90
45619;DHT22;31343;47.520;19.144;2022-10-16T15:48:31;19.80;93.10
45619;DHT22;31343;47.520;19.144;2022-10-16T15:50:57;19.70;93.40
45619;DHT22;31343;47.520;19.144;2022-10-16T15:53:23;19.60;93.60
45619;DHT22;31343;47.520;19.144;2022-10-16T15:55:49;19.50;93.70
45619;DHT22;31343;47.520;19.144;2022-10-16T15:58:15;19.40;93.90
45619;DHT22;31343;47.520;19.144;2022-10-16T16:00:40;19.40;94.10
45619;DHT22;31343;47.520;19.144;2022-10-16T16:03:06;19.30;94.20
45619;DHT22;31343;47.520;19.144;2022-10-16T16:05:32;19.20;94.80
45619;DHT22;31343;47.520;19.144;2022-10-16T16:07:59;19.10;94.70
45619;DHT22;31343;47.520;19.144;2022-10-16T16:10:24;19.00;96.00
45619;DHT22;31343;47.520;19.144;2022-10-16T16:12:50;18.90;96.80
45619;DHT22;31343;47.520;19.144;2022-10-16T16:15:20;18.70;97.70
45619;DHT22;31343;47.520;19.144;2022-10-16T16:17:46;18.50;98.30
45619;DHT22;31343;47.520;19.144;2022-10-16T16:20:13;18.40;98.30
45619;DHT22;31343;47.520;19.144;2022-10-16T16:22:38;18.30;98.70
45619;DHT22;31343;47.520;19.144;2022-10-16T16:25:04;18.20;99.20
45619;DHT22;31343;47.520;19.144;2022-10-16T16:27:30;18.10;99.10
45619;DHT22;31343;47.520;19.144;2022-10-16T16:29:59;18.10;99.10
45619;DHT22;31343;47.520;19.144;2022-10-16T16:32:25;18.00;99.90
45619;DHT22;31343;47.520;19.144;2022-10-16T16:34:51;17.90;99.90
45619;DHT22;31343;47.520;19.144;2022-10-16T16:37:17;17.70;99.90
45619;DHT22;31343;47.520;19.144;2022-10-16T16:39:42;17.70;99.90
45619;DHT22;31343;47.520;19.144;2022-10-16T16:42:08;17.70;99.90
45619;DHT22;31343;47.520;19.144;2022-10-16T16:44:36;17.70;99.90
45619;DHT22;31343;47.520;19.144;2022-10-16T16:47:02;17.60;99.90
45619;DHT22;31343;47.520;19.144;2022-10-16T16:49:28;17.50;99.90
45619;DHT22;31343;47.520;19.144;2022-10-16T16:51:54;17.30;99.90
45619;DHT22;31343;47.520;19.144;2022-10-16T16:54:20;17.30;99.90
45619;DHT22;31343;47.520;19.144;2022-10-16T16:56:46;17.30;99.90
45619;DHT22;31343;47.520;19.144;2022-10-16T16:59:13;17.20;99.90
45619;DHT22;31343;47.520;19.144;2022-10-16T17:01:40;17.10;99.90
45619;DHT22;31343;47.520;19.144;2022-10-16T17:04:07;17.10;99.90
45619;DHT22;31343;47.520;19.144;2022-10-16T17:06:32;17.00;99.90
45619;DHT22;31343;47.520;19.144;2022-10-16T17:09:00;17.00;99.90
45619;DHT22;31343;47.520;19.144;2022-10-16T17:11:27;17.00;99.90
45619;DHT22;31343;47.520;19.144;2022-10-16T17:13:54;17.00;99.90
45619;DHT22;31343;47.520;19.144;2022-10-16T17:16:21;16.90;99.90
45619;DHT22;31343;47.520;19.144;2022-10-16T17:18:47;16.90;99.90
45619;DHT22;31343;47.520;19.144;2022-10-16T17:21:13;16.80;99.90
45619;DHT22;31343;47.520;19.144;2022-10-16T17:23:39;16.90;99.90
45619;DHT22;31343;47.520;19.144;2022-10-16T17:26:16;16.80;99.90
45619;DHT22;31343;47.520;19.144;2022-10-16T17:28:43;16.70;99.90
45619;DHT22;31343;47.520;19.144;2022-10-16T17:31:17;16.70;99.90
45619;DHT22;31343;47.520;19.144;2022-10-16T17:33:45;16.70;99.90
45619;DHT22;31343;47.520;19.144;2022-10-16T17:36:11;16.70;99.90
45619;DHT22;31343;47.520;19.144;2022-10-16T17:38:42;16.70;99.90
45619;DHT22;31343;47.520;19.144;2022-10-16T17:41:13;16.50;99.90
45619;DHT22;31343;47.520;19.144;2022-10-16T17:43:39;16.50;99.90
45619;DHT22;31343;47.520;19.144;2022-10-16T17:46:05;16.40;99.90
45619;DHT22;31343;47.520;19.144;2022-10-16T17:48:39;16.40;99.90